Time;durP1;ratioP1;P1;durP2;ratioP2;P2;SDS_P1;SDS_P2;PMS_P1;PMS_P2;Temp;Humidity;BMP_temperature;BMP_pressure;BME280_temperature;BME280_humidity;BME280_pressure;Samples;Min_cycle;Max_cycle;Signal;HPM_P1;HPM_P2
2022/08/15 00:01:14;;;;;;;;;;;;;;;25.77;43.06;99414.78;20489755;28;100386;-72
2022/08/15 00:11:17;;;;;;;;;;;;;;;25.66;43.69;99413.31;20478044;28;98584;-72
2022/08/15 00:21:20;;;;;;;;;;;;;;;25.75;43.12;99416.78;20485743;28;100542;-72
2022/08/15 00:31:21;;;;;;;;;;;;;;;25.59;43.47;99423.81;20485065;28;101133;-72
2022/08/15 00:41:39;;;;;;;;;;;;;;;25.54;43.51;99413.72;20482747;28;98010;-72
2022/08/15 00:51:49;;;;;;;;;;;;;;;25.55;43.45;99422.50;20485873;28;97478;-73
2022/08/15 01:01:51;;;;;;;;;;;;;;;25.41;43.73;99424.88;20488174;28;98660;-73
2022/08/15 01:12:15;;;;;;;;;;;;;;;25.24;43.93;99416.09;20490643;28;98102;-73
2022/08/15 01:22:34;;;;;;;;;;;;;;;25.22;44.41;99439.28;20494215;28;98787;-73
2022/08/15 01:32:35;;;;;;;;;;;;;;;25.26;44.09;99434.47;20484437;28;102298;-73
2022/08/15 01:42:41;;;;;;;;;;;;;;;25.14;44.12;99439.28;20483514;28;98692;-73
2022/08/15 01:52:47;;;;;;;;;;;;;;;25.02;44.59;99438.78;20486032;28;97226;-73
2022/08/15 02:02:47;;;;;;;;;;;;;;;24.99;44.51;99443.63;20493593;28;98033;-73
2022/08/15 02:12:48;;;;;;;;;;;;;;;24.89;44.87;99435.81;20488730;28;100111;-73
2022/08/15 02:22:49;;;;;;;;;;;;;;;24.78;44.97;99421.13;20488857;28;101498;-73
2022/08/15 02:32:49;;;;;;;;;;;;;;;24.71;45.45;99420.94;20491375;27;97510;-73
2022/08/15 02:42:50;;;;;;;;;;;;;;;24.72;45.60;99417.31;20501110;28;98807;-73
2022/08/15 02:52:50;;;;;;;;;;;;;;;24.78;45.78;99429.88;20483175;28;100759;-72
2022/08/15 03:03:03;;;;;;;;;;;;;;;24.69;46.27;99430.06;20489846;28;98581;-73
2022/08/15 03:13:05;;;;;;;;;;;;;;;24.71;45.96;99436.84;20487154;28;98325;-72
2022/08/15 03:23:07;;;;;;;;;;;;;;;24.74;46.28;99430.38;20477019;28;97303;-73
2022/08/15 03:33:08;;;;;;;;;;;;;;;24.69;46.08;99427.41;20488335;28;98852;-72
2022/08/15 03:43:09;;;;;;;;;;;;;;;24.62;46.03;99435.97;20483165;28;97608;-72
2022/08/15 03:53:10;;;;;;;;;;;;;;;24.58;45.99;99447.06;20482009;28;97839;-72
2022/08/15 04:03:15;;;;;;;;;;;;;;;24.41;46.66;99449.69;20486922;28;97942;-72
2022/08/15 04:13:15;;;;;;;;;;;;;;;24.30;47.04;99458.75;20482578;28;98275;-72
2022/08/15 04:23:16;;;;;;;;;;;;;;;24.26;47.30;99454.75;20468859;28;98048;-71
2022/08/15 04:33:27;;;;;;;;;;;;;;;24.22;47.59;99442.88;20468430;28;99677;-72
2022/08/15 04:43:28;;;;;;;;;;;;;;;24.23;47.91;99457.75;20469485;28;98270;-72
2022/08/15 04:53:30;;;;;;;;;;;;;;;24.23;48.25;99460.41;20484013;28;97287;-73
2022/08/15 05:03:32;;;;;;;;;;;;;;;24.13;48.40;99447.31;20485740;28;99030;-73
2022/08/15 05:13:35;;;;;;;;;;;;;;;24.17;48.62;99457.56;20459785;28;99744;-70
2022/08/15 05:23:36;;;;;;;;;;;;;;;24.17;48.67;99450.47;20474098;28;99196;-73
2022/08/15 05:33:37;;;;;;;;;;;;;;;24.22;48.56;99458.75;20464462;28;97951;-72
2022/08/15 05:43:50;;;;;;;;;;;;;;;24.31;48.36;99456.94;20468052;28;97737;-72
2022/08/15 05:54:03;;;;;;;;;;;;;;;24.39;48.05;99446.38;20476494;28;97814;-72
2022/08/15 06:04:05;;;;;;;;;;;;;;;24.49;47.85;99442.75;20484146;27;98325;-72
2022/08/15 06:14:19;;;;;;;;;;;;;;;24.57;47.23;99445.38;20478338;27;99055;-72
2022/08/15 06:24:35;;;;;;;;;;;;;;;24.66;46.90;99449.75;20475979;28;97870;-74
2022/08/15 06:34:42;;;;;;;;;;;;;;;24.76;47.01;99458.34;20481175;28;98307;-72
2022/08/15 06:44:46;;;;;;;;;;;;;;;24.82;46.95;99451.56;20479582;28;97701;-73
2022/08/15 06:54:46;;;;;;;;;;;;;;;24.91;47.08;99447.09;20471403;28;97901;-72
2022/08/15 07:04:46;;;;;;;;;;;;;;;24.98;47.30;99447.25;20479466;28;101204;-73
2022/08/15 07:15:02;;;;;;;;;;;;;;;25.09;47.21;99457.50;20468812;28;98782;-72
2022/08/15 07:25:08;;;;;;;;;;;;;;;25.16;46.95;99455.84;20489532;28;97373;-72
2022/08/15 07:35:12;;;;;;;;;;;;;;;25.25;46.63;99448.72;20514339;28;97889;-72
2022/08/15 07:45:17;;;;;;;;;;;;;;;25.33;46.42;99447.84;20504094;27;98374;-73
2022/08/15 07:55:19;;;;;;;;;;;;;;;25.43;46.77;99451.19;20496937;28;97334;-72
2022/08/15 08:05:24;;;;;;;;;;;;;;;25.52;46.80;99458.13;20493268;28;100800;-72
2022/08/15 08:15:29;;;;;;;;;;;;;;;25.61;46.13;99460.72;20504809;28;107226;-72
2022/08/15 08:25:48;;;;;;;;;;;;;;;25.69;45.72;99450.09;20499873;28;101828;-72
2022/08/15 08:35:59;;;;;;;;;;;;;;;25.80;45.79;99454.22;20495270;28;97827;-70
2022/08/15 08:46:23;;;;;;;;;;;;;;;25.88;45.27;99457.66;20505000;28;100242;-73
2022/08/15 08:56:27;;;;;;;;;;;;;;;25.96;44.32;99448.81;20505184;28;98845;-73
2022/08/15 09:06:29;;;;;;;;;;;;;;;26.04;44.39;99442.66;20517329;28;98939;-74
2022/08/15 09:16:33;;;;;;;;;;;;;;;26.16;43.92;99437.84;20500852;28;101359;-72
2022/08/15 09:26:49;;;;;;;;;;;;;;;26.23;43.74;99424.69;20503807;28;97389;-73
2022/08/15 09:37:05;;;;;;;;;;;;;;;26.29;43.39;99418.66;20516672;28;98819;-74
2022/08/15 09:47:27;;;;;;;;;;;;;;;26.37;42.21;99411.47;20498493;28;98224;-74
2022/08/15 09:57:27;;;;;;;;;;;;;;;26.50;40.61;99412.69;20504551;28;97382;-72
2022/08/15 10:07:42;;;;;;;;;;;;;;;26.55;40.99;99386.47;20510065;28;97593;-73
2022/08/15 10:17:43;;;;;;;;;;;;;;;26.60;41.16;99372.63;20497094;28;97333;-73
2022/08/15 10:27:58;;;;;;;;;;;;;;;26.65;41.16;99378.25;20513707;28;98869;-74
2022/08/15 10:38:01;;;;;;;;;;;;;;;26.71;40.99;99366.91;20524492;28;97725;-74
2022/08/15 10:48:16;;;;;;;;;;;;;;;26.79;40.95;99368.69;20510033;28;98537;-74
2022/08/15 10:58:22;;;;;;;;;;;;;;;26.89;40.48;99344.50;20506580;27;97257;-74
2022/08/15 11:08:23;;;;;;;;;;;;;;;26.95;40.59;99349.94;20502759;27;100141;-74
2022/08/15 11:18:28;;;;;;;;;;;;;;;27.02;41.14;99338.59;20477662;28;98858;-74
2022/08/15 11:28:30;;;;;;;;;;;;;;;27.08;40.94;99348.47;20468780;28;100533;-75
2022/08/15 11:38:34;;;;;;;;;;;;;;;27.13;40.63;99336.28;20478290;28;102259;-72
2022/08/15 11:48:39;;;;;;;;;;;;;;;27.19;40.30;99324.09;20542179;28;97516;-73
2022/08/15 11:58:44;;;;;;;;;;;;;;;27.31;37.55;99319.94;20526400;28;97327;-75
2022/08/15 12:08:46;;;;;;;;;;;;;;;27.33;37.98;99304.66;20509835;28;98949;-74
2022/08/15 12:18:48;;;;;;;;;;;;;;;27.36;38.07;99299.97;20518595;28;97867;-74
2022/08/15 12:28:49;;;;;;;;;;;;;;;27.41;38.09;99300.28;20516561;28;98033;-74
2022/08/15 12:38:49;;;;;;;;;;;;;;;27.62;37.08;99288.84;20534916;28;97073;-73
2022/08/15 12:48:50;;;;;;;;;;;;;;;27.65;38.12;99275.19;20529365;28;98332;-75
2022/08/15 12:58:51;;;;;;;;;;;;;;;27.68;38.09;99255.38;20507608;28;98487;-73
2022/08/15 13:08:52;;;;;;;;;;;;;;;27.73;37.70;99263.59;20528178;28;98575;-78
2022/08/15 13:18:53;;;;;;;;;;;;;;;27.76;37.59;99258.72;20513311;28;98399;-78
2022/08/15 13:28:55;;;;;;;;;;;;;;;27.82;37.60;99245.66;20502823;28;98899;-79
2022/08/15 13:38:55;;;;;;;;;;;;;;;27.87;37.56;99224.63;20479531;28;98837;-78
2022/08/15 13:49:03;;;;;;;;;;;;;;;27.93;37.54;99218.56;20491714;28;98431;-77
2022/08/15 13:59:06;;;;;;;;;;;;;;;27.99;37.47;99219.63;20495942;28;97839;-78
2022/08/15 14:09:08;;;;;;;;;;;;;;;28.05;37.49;99210.88;20517046;28;98422;-80
2022/08/15 14:19:11;;;;;;;;;;;;;;;28.09;37.47;99210.31;20570786;28;98475;-79
2022/08/15 14:29:27;;;;;;;;;;;;;;;28.14;36.90;99207.09;20571462;28;97161;-79
2022/08/15 14:39:29;;;;;;;;;;;;;;;28.17;36.94;99200.53;20546096;28;97400;-76
2022/08/15 14:49:30;;;;;;;;;;;;;;;28.24;37.09;99196.91;20529910;28;98995;-80
2022/08/15 14:59:30;;;;;;;;;;;;;;;28.30;37.44;99205.16;20544619;28;98312;-77
2022/08/15 15:09:31;;;;;;;;;;;;;;;28.37;36.75;99198.00;20522409;28;97273;-79
2022/08/15 15:19:31;;;;;;;;;;;;;;;28.35;36.20;99205.38;20513501;28;98060;-80
2022/08/15 15:29:33;;;;;;;;;;;;;;;28.31;35.94;99196.97;20481840;28;98687;-81
2022/08/15 15:39:34;;;;;;;;;;;;;;;28.33;36.38;99196.75;20452429;28;97884;-80
2022/08/15 15:49:36;;;;;;;;;;;;;;;28.30;36.20;99192.66;20473836;28;97432;-79
2022/08/15 15:59:37;;;;;;;;;;;;;;;28.31;36.52;99186.31;20458066;28;98815;-74
2022/08/15 16:09:37;;;;;;;;;;;;;;;28.31;36.60;99175.66;20467284;28;100689;-74
2022/08/15 16:19:50;;;;;;;;;;;;;;;28.31;35.69;99188.97;20474904;28;101104;-75
2022/08/15 16:30:04;;;;;;;;;;;;;;;28.31;34.17;99185.47;20495454;28;98816;-74
2022/08/15 16:40:09;;;;;;;;;;;;;;;28.33;32.98;99180.78;20506901;28;97670;-75
2022/08/15 16:50:19;;;;;;;;;;;;;;;28.36;33.16;99194.53;20484108;28;97662;-75
2022/08/15 17:00:23;;;;;;;;;;;;;;;28.38;33.05;99204.97;20480354;28;98565;-75
2022/08/15 17:10:27;;;;;;;;;;;;;;;28.35;32.46;99202.72;20455043;28;98532;-77
2022/08/15 17:20:34;;;;;;;;;;;;;;;28.50;33.08;99210.59;20471166;28;97642;-76
2022/08/15 17:31:04;;;;;;;;;;;;;;;28.52;33.32;99224.53;20468248;28;98209;-78
2022/08/15 17:41:06;;;;;;;;;;;;;;;28.52;34.35;99237.84;20383770;28;98477;-73
2022/08/15 17:51:26;;;;;;;;;;;;;;;28.48;35.49;99244.56;20397566;28;99145;-79
2022/08/15 18:01:26;;;;;;;;;;;;;;;28.46;35.44;99262.59;20436352;27;98518;-77
2022/08/15 18:11:31;;;;;;;;;;;;;;;28.40;35.47;99272.97;20538973;28;102464;-78
2022/08/15 18:21:46;;;;;;;;;;;;;;;28.39;36.54;99290.00;20515284;28;98388;-79
2022/08/15 18:31:54;;;;;;;;;;;;;;;28.34;36.31;99303.03;20465710;28;98169;-78
2022/08/15 18:41:55;;;;;;;;;;;;;;;28.33;36.17;99300.56;20446518;28;98809;-77
2022/08/15 18:51:56;;;;;;;;;;;;;;;28.31;36.05;99319.41;20469519;28;99006;-76
2022/08/15 19:01:59;;;;;;;;;;;;;;;28.30;35.88;99324.94;20490636;28;100613;-78
2022/08/15 19:12:09;;;;;;;;;;;;;;;28.27;36.64;99347.41;20481773;28;98880;-77
2022/08/15 19:22:10;;;;;;;;;;;;;;;28.23;36.70;99343.50;20486250;28;98803;-77
2022/08/15 19:32:35;;;;;;;;;;;;;;;28.18;36.85;99341.41;20465009;28;98748;-77
2022/08/15 19:42:58;;;;;;;;;;;;;;;28.10;37.31;99354.84;20502122;28;97548;-78
2022/08/15 19:53:13;;;;;;;;;;;;;;;28.04;37.18;99358.22;20508542;28;97350;-78
2022/08/15 20:03:20;;;;;;;;;;;;;;;27.97;37.62;99360.81;20461123;28;98849;-78
2022/08/15 20:13:29;;;;;;;;;;;;;;;27.93;37.64;99370.22;20495213;28;97836;-78
2022/08/15 20:23:38;;;;;;;;;;;;;;;27.89;38.12;99380.41;20484760;27;101431;-78
2022/08/15 20:33:39;;;;;;;;;;;;;;;27.84;37.92;99385.44;20487619;28;97810;-78
2022/08/15 20:43:53;;;;;;;;;;;;;;;27.77;38.78;99389.84;20468178;28;101155;-77
2022/08/15 20:53:53;;;;;;;;;;;;;;;27.73;39.09;99393.91;20473240;28;98257;-77
2022/08/15 21:03:58;;;;;;;;;;;;;;;27.67;39.10;99397.31;20461961;28;101394;-76
2022/08/15 21:14:15;;;;;;;;;;;;;;;27.60;38.34;99407.84;20471928;28;98577;-76
2022/08/15 21:24:27;;;;;;;;;;;;;;;27.55;38.74;99404.94;20499124;28;97135;-76
2022/08/15 21:34:29;;;;;;;;;;;;;;;27.54;38.54;99405.94;20503322;28;98050;-77
2022/08/15 21:44:32;;;;;;;;;;;;;;;27.52;38.56;99421.28;20496680;27;100625;-77
2022/08/15 21:54:47;;;;;;;;;;;;;;;27.46;39.23;99428.13;20502571;27;98233;-77
2022/08/15 22:04:47;;;;;;;;;;;;;;;27.36;39.28;99431.03;20492024;28;98086;-77
2022/08/15 22:14:48;;;;;;;;;;;;;;;27.33;39.52;99423.41;20495408;27;97874;-77
2022/08/15 22:24:49;;;;;;;;;;;;;;;27.25;40.12;99428.84;20484228;27;97973;-77
2022/08/15 22:34:51;;;;;;;;;;;;;;;27.17;40.30;99422.59;20480892;28;97766;-77
2022/08/15 22:44:51;;;;;;;;;;;;;;;27.09;40.39;99428.00;20476961;28;100855;-77
2022/08/15 22:54:52;;;;;;;;;;;;;;;27.08;40.31;99421.03;20483211;28;98753;-76
2022/08/15 23:04:57;;;;;;;;;;;;;;;27.05;40.55;99433.84;20479590;28;98963;-77
2022/08/15 23:15:01;;;;;;;;;;;;;;;26.98;40.82;99421.28;20420747;28;1906974;-76
2022/08/15 23:25:03;;;;;;;;;;;;;;;26.90;41.38;99412.56;20487802;28;98356;-77
2022/08/15 23:35:05;;;;;;;;;;;;;;;26.78;41.21;99393.59;20490099;28;99058;-76
2022/08/15 23:45:06;;;;;;;;;;;;;;;26.71;41.42;99400.59;20484344;28;97808;-76
2022/08/15 23:55:09;;;;;;;;;;;;;;;26.63;42.12;99398.84;20475638;28;101161;-78
